Time;durP1;ratioP1;P1;durP2;ratioP2;P2;SDS_P1;SDS_P2;PMS_P1;PMS_P2;Temp;Humidity;BMP_temperature;BMP_pressure;BME280_temperature;BME280_humidity;BME280_pressure;Samples;Min_cycle;Max_cycle;Signal;HPM_P1;HPM_P2
2021/12/24 00:01:23;;;;;;;6.97;4.83;;;7.40;1.00;;;;;;4954297;28;20442;-69
2021/12/24 00:03:51;;;;;;;3.77;2.83;;;7.40;1.00;;;;;;4954166;28;20586;-71
2021/12/24 00:06:21;;;;;;;6.87;4.83;;;7.40;1.00;;;;;;4955904;28;20467;-67
2021/12/24 00:08:49;;;;;;;0.70;0.47;;;7.40;1.00;;;;;;4953583;28;20442;-68
2021/12/24 00:11:17;;;;;;;6.20;4.43;;;7.50;1.00;;;;;;4953823;28;20450;-68
2021/12/24 00:13:48;;;;;;;3.23;2.07;;;7.50;1.00;;;;;;4953882;28;20888;-68
2021/12/24 00:16:23;;;;;;;2.20;2.00;;;7.50;1.00;;;;;;4955644;28;20478;-67
2021/12/24 00:18:57;;;;;;;4.43;3.13;;;;;;;;;;4957427;28;20465;-69
2021/12/24 00:35:29;;;;;;;1.37;1.20;;;7.40;1.00;;;;;;4955130;28;20453;-68
2021/12/24 00:38:03;;;;;;;4.50;2.40;;;7.30;1.00;;;;;;4955395;28;20463;-69
2021/12/24 00:40:33;;;;;;;3.90;2.87;;;7.40;1.00;;;;;;4954982;28;20446;-67
2021/12/24 00:43:01;;;;;;;3.27;2.23;;;7.30;1.00;;;;;;4953841;28;20584;-67
2021/12/24 00:45:30;;;;;;;2.63;2.43;;;7.30;1.00;;;;;;4952208;28;20819;-68
2021/12/24 00:48:05;;;;;;;13.40;9.77;;;7.30;1.00;;;;;;4953385;29;20478;-71
2021/12/24 00:50:47;;;;;;;2.37;1.20;;;7.40;1.00;;;;;;4937780;28;20961;-68
2021/12/24 00:55:59;;;;;;;4.87;3.87;;;7.40;1.00;;;;;;4965703;28;20824;-68
2021/12/24 00:58:26;;;;;;;3.47;2.57;;;7.40;1.00;;;;;;4959264;28;20449;-68
2021/12/24 01:00:54;;;;;;;7.07;4.40;;;7.40;1.00;;;;;;4956879;28;20460;-68
2021/12/24 01:03:23;;;;;;;5.10;3.33;;;7.40;1.00;;;;;;4957023;28;20541;-68
2021/12/24 01:05:51;;;;;;;23.17;13.73;;;7.40;1.00;;;;;;4959962;28;20460;-68
2021/12/24 01:08:23;;;;;;;0.60;0.57;;;7.50;1.00;;;;;;4956821;29;20454;-69
2021/12/24 01:10:54;;;;;;;1.87;1.70;;;;;;;;;;4956938;28;20447;-68
2021/12/24 01:13:21;;;;;;;3.27;1.40;;;7.50;1.00;;;;;;4956863;28;20509;-69
2021/12/24 01:15:56;;;;;;;3.40;2.37;;;7.50;1.00;;;;;;4968371;28;20460;-67
2021/12/24 01:18:33;;;;;;;5.33;2.73;;;7.50;1.00;;;;;;4959067;28;20477;-67
2021/12/24 01:21:14;;;;;;;7.83;4.97;;;7.60;1.00;;;;;;4957664;28;20810;-71
2021/12/24 01:23:49;;;;;;;4.30;2.53;;;7.60;1.00;;;;;;4957971;28;20865;-68
2021/12/24 01:26:23;;;;;;;0.80;0.33;;;7.60;1.00;;;;;;4962139;28;20473;-67
2021/12/24 01:40:07;;;;;;;1.00;0.83;;;7.70;1.00;;;;;;4966035;29;20484;-67
2021/12/24 01:42:42;;;;;;;15.63;5.20;;;7.80;1.00;;;;;;4969643;28;20460;-67
2021/12/24 01:45:22;;;;;;;2.00;1.40;;;7.80;1.00;;;;;;4961290;28;20482;-67
2021/12/24 01:47:52;;;;;;;0.70;0.60;;;7.90;1.00;;;;;;4961631;28;20478;-68
2021/12/24 01:50:22;;;;;;;0.80;0.80;;;7.90;1.00;;;;;;4961263;29;20443;-68
2021/12/24 01:52:51;;;;;;;4.57;4.23;;;7.90;1.00;;;;;;4961431;28;20465;-68
2021/12/24 01:55:21;;;;;;;2.30;1.07;;;7.90;1.00;;;;;;4960802;29;20515;-68
2021/12/24 01:57:49;;;;;;;0.50;0.27;;;7.90;1.00;;;;;;4959966;28;20470;-68
2021/12/24 02:00:19;;;;;;;1.87;1.60;;;7.90;1.00;;;;;;4960605;28;20447;-67
2021/12/24 02:02:48;;;;;;;3.95;3.65;;;8.00;1.00;;;;;;4952423;28;20454;-68
2021/12/24 02:05:16;;;;;;;3.20;3.03;;;8.00;1.00;;;;;;4962311;28;20234;-68
2021/12/24 02:07:44;;;;;;;3.23;2.20;;;8.10;1.00;;;;;;4951418;29;20594;-68
2021/12/24 02:10:15;;;;;;;1.17;1.03;;;8.10;1.00;;;;;;4947194;28;20465;-68
2021/12/24 02:12:47;;;;;;;0.70;0.47;;;8.10;1.00;;;;;;4952719;29;20438;-68
2021/12/24 02:15:25;;;;;;;2.00;1.47;;;8.10;1.00;;;;;;4950823;29;20438;-68
2021/12/24 02:18:23;;;;;;;1.60;1.50;;;8.00;1.00;;;;;;4946568;29;20459;-67
2021/12/24 02:29:15;;;;;;;0.50;0.10;;;8.10;1.00;;;;;;4953523;29;20443;-68
2021/12/24 02:31:44;;;;;;;0.97;0.97;;;8.10;1.00;;;;;;4958030;28;20439;-68
2021/12/24 02:34:12;;;;;;;0.50;0.10;;;8.10;1.00;;;;;;4957927;29;20446;-68
2021/12/24 02:36:42;;;;;;;0.50;0.10;;;8.10;1.00;;;;;;4957574;28;20478;-69
2021/12/24 02:39:10;;;;;;;0.50;0.10;;;8.10;1.00;;;;;;4963238;28;20919;-68
2021/12/24 02:41:38;;;;;;;0.50;0.10;;;8.10;1.00;;;;;;4976085;28;20433;-68
2021/12/24 02:44:05;;;;;;;0.50;0.10;;;8.10;1.00;;;;;;4976970;28;20489;-68
2021/12/24 02:46:40;;;;;;;0.50;0.20;;;8.10;1.00;;;;;;4975884;28;20618;-68
2021/12/24 02:49:13;;;;;;;0.50;0.10;;;;;;;;;;4975211;28;20969;-68
2021/12/24 02:54:28;;;;;;;2.07;1.90;;;8.10;1.00;;;;;;4976059;28;20441;-68
2021/12/24 02:57:06;;;;;;;0.50;0.10;;;8.10;1.00;;;;;;4975723;28;21027;-68
2021/12/24 02:59:36;;;;;;;0.50;0.10;;;8.10;1.00;;;;;;4975989;28;20458;-68
2021/12/24 03:02:04;;;;;;;1.23;0.80;;;8.10;1.00;;;;;;4976124;28;20730;-68
2021/12/24 03:04:32;;;;;;;0.50;0.10;;;8.10;1.00;;;;;;4976160;28;20571;-68
2021/12/24 03:07:01;;;;;;;0.50;0.10;;;8.10;1.00;;;;;;4998928;23;20488;-66
2021/12/24 03:09:29;;;;;;;0.50;0.10;;;8.10;1.00;;;;;;4980256;28;20461;-66
2021/12/24 03:11:58;;;;;;;0.50;0.30;;;8.20;1.00;;;;;;4993024;28;20446;-65
2021/12/24 03:14:26;;;;;;;0.50;0.10;;;8.20;1.00;;;;;;4993078;28;20451;-66
2021/12/24 03:16:58;;;;;;;0.50;0.10;;;8.20;1.00;;;;;;4993093;28;20840;-65
2021/12/24 03:19:29;;;;;;;0.50;0.10;;;8.20;1.00;;;;;;4985678;28;20952;-65
2021/12/24 03:22:01;;;;;;;0.50;0.10;;;8.30;1.00;;;;;;4973788;28;20491;-64
2021/12/24 03:24:36;;;;;;;0.50;0.10;;;8.30;1.00;;;;;;4973273;28;20575;-65
2021/12/24 03:27:06;;;;;;;0.50;0.10;;;8.30;1.00;;;;;;4973834;28;20441;-65
2021/12/24 03:29:35;;;;;;;0.50;0.10;;;8.30;1.00;;;;;;4980836;28;20894;-65
2021/12/24 03:32:05;;;;;;;0.50;0.10;;;8.30;1.00;;;;;;4992892;28;20441;-65
2021/12/24 03:34:33;;;;;;;0.50;0.10;;;8.30;1.00;;;;;;4992513;28;20447;-66
2021/12/24 03:37:03;;;;;;;0.50;0.10;;;8.30;1.00;;;;;;4992721;28;20662;-65
2021/12/24 03:39:32;;;;;;;0.50;0.10;;;8.30;1.00;;;;;;4985711;28;20452;-66
2021/12/24 03:42:00;;;;;;;0.50;0.10;;;8.30;1.00;;;;;;4973541;28;20808;-65
2021/12/24 03:44:31;;;;;;;0.70;0.47;;;8.30;1.00;;;;;;4972952;28;20485;-64
2021/12/24 03:47:05;;;;;;;0.50;0.17;;;8.20;1.00;;;;;;4973325;28;20520;-66
2021/12/24 03:49:37;;;;;;;0.50;0.10;;;8.20;1.00;;;;;;4979306;28;20456;-66
2021/12/24 03:52:35;;;;;;;0.50;0.20;;;8.20;1.00;;;;;;4992746;28;20450;-65
2021/12/24 03:55:05;;;;;;;0.50;0.20;;;8.20;1.00;;;;;;4992431;28;20448;-66
2021/12/24 03:57:35;;;;;;;0.93;0.90;;;8.20;1.00;;;;;;4992255;28;21016;-66
2021/12/24 04:00:08;;;;;;;0.50;0.10;;;8.20;1.00;;;;;;4981409;28;20457;-66
2021/12/24 04:02:36;;;;;;;4.03;3.83;;;8.20;1.00;;;;;;4972834;28;20967;-67
2021/12/24 04:05:05;;;;;;;0.50;0.10;;;8.10;1.00;;;;;;4973026;28;20579;-64
2021/12/24 04:07:33;;;;;;;0.60;0.33;;;8.10;1.00;;;;;;4972799;28;20480;-66
2021/12/24 04:10:03;;;;;;;0.50;0.10;;;8.10;1.00;;;;;;4973387;28;20442;-64
2021/12/24 04:12:35;;;;;;;0.60;0.30;;;8.10;1.00;;;;;;4988712;28;20452;-66
2021/12/24 04:15:05;;;;;;;0.60;0.33;;;8.10;1.00;;;;;;4992654;28;20443;-64
2021/12/24 04:17:37;;;;;;;0.50;0.10;;;8.10;1.00;;;;;;4992387;28;20991;-64
2021/12/24 04:25:36;;;;;;;0.50;0.10;;;8.00;1.00;;;;;;4976172;28;20478;-65
2021/12/24 04:28:05;;;;;;;0.50;0.10;;;8.00;1.00;;;;;;4972728;28;20817;-64
2021/12/24 04:30:41;;;;;;;3.27;2.47;;;8.00;1.00;;;;;;4974390;28;20445;-65
2021/12/24 04:33:16;;;;;;;0.60;0.30;;;8.10;1.00;;;;;;4976637;28;20802;-65
2021/12/24 04:35:55;;;;;;;0.50;0.10;;;8.10;1.00;;;;;;4978046;28;20461;-65
2021/12/24 04:38:35;;;;;;;0.87;0.80;;;8.10;1.00;;;;;;4995811;28;20975;-65
2021/12/24 04:52:16;;;;;;;0.50;0.30;;;8.30;1.00;;;;;;4976401;28;20446;-64
2021/12/24 05:03:27;;;;;;;1.03;0.50;;;8.40;1.00;;;;;;4963451;28;20504;-64
2021/12/24 05:06:07;;;;;;;2.03;1.07;;;8.40;1.00;;;;;;4976759;28;20477;-65
2021/12/24 05:08:43;;;;;;;0.50;0.20;;;8.40;1.00;;;;;;4975891;28;20887;-65
2021/12/24 05:11:13;;;;;;;1.13;0.60;;;8.40;1.00;;;;;;4976403;28;20448;-64
2021/12/24 05:13:41;;;;;;;1.37;1.27;;;8.40;1.00;;;;;;4976461;28;20587;-64
2021/12/24 05:16:20;;;;;;;0.70;0.47;;;8.40;1.00;;;;;;4975746;28;20817;-63
2021/12/24 05:21:32;;;;;;;0.80;0.73;;;9.10;1.00;;;;;;4976101;28;21021;-65
2021/12/24 05:21:52;;;;;;;0.50;0.10;;;8.50;1.00;;;;;;4977117;28;20480;-65
2021/12/24 05:24:22;;;;;;;0.50;0.10;;;8.50;1.00;;;;;;4975715;28;20452;-65
2021/12/24 05:26:53;;;;;;;0.50;0.10;;;8.50;1.00;;;;;;4975770;28;20488;-65
2021/12/24 05:29:21;;;;;;;1.13;0.97;;;8.50;1.00;;;;;;4975716;28;20449;-64
2021/12/24 05:31:51;;;;;;;2.40;1.03;;;8.60;1.00;;;;;;4972676;28;20453;-65
2021/12/24 05:34:19;;;;;;;0.60;0.47;;;8.60;1.00;;;;;;4968285;28;20443;-65
2021/12/24 05:36:48;;;;;;;1.13;0.67;;;8.60;1.00;;;;;;4975328;28;20453;-64
2021/12/24 05:39:18;;;;;;;0.73;0.60;;;8.60;1.00;;;;;;4975237;28;20805;-65
2021/12/24 05:41:46;;;;;;;2.17;2.00;;;8.60;1.00;;;;;;4974746;28;20915;-65
2021/12/24 05:44:17;;;;;;;0.60;0.40;;;8.60;1.00;;;;;;4974922;28;20456;-65
2021/12/24 05:46:45;;;;;;;2.00;1.60;;;8.60;1.00;;;;;;4975504;28;20519;-65
2021/12/24 05:49:14;;;;;;;0.80;0.70;;;8.60;1.00;;;;;;4975122;28;20548;-66
2021/12/24 05:51:45;;;;;;;1.83;1.20;;;8.60;1.00;;;;;;4975376;28;20457;-65
2021/12/24 05:54:13;;;;;;;1.70;1.53;;;8.60;1.00;;;;;;4993038;28;20444;-65
2021/12/24 05:56:42;;;;;;;0.50;0.10;;;8.60;1.00;;;;;;4994406;28;20441;-65
2021/12/24 05:59:10;;;;;;;2.20;2.00;;;8.60;1.00;;;;;;4994465;28;20461;-64
2021/12/24 06:01:38;;;;;;;0.93;0.47;;;8.60;1.00;;;;;;4994484;28;20441;-64
2021/12/24 06:04:06;;;;;;;0.50;0.20;;;8.60;1.00;;;;;;4994380;28;20962;-65
2021/12/24 06:06:36;;;;;;;2.77;1.07;;;8.60;1.00;;;;;;4994748;28;20513;-65
2021/12/24 06:09:04;;;;;;;1.43;1.33;;;8.70;1.00;;;;;;4992525;28;20492;-65
2021/12/24 06:11:32;;;;;;;8.00;1.43;;;8.60;1.00;;;;;;4994357;28;20552;-64
2021/12/24 06:14:09;;;;;;;1.83;1.10;;;8.60;1.00;;;;;;4994528;28;20441;-64
2021/12/24 06:16:46;;;;;;;1.50;1.40;;;8.60;1.00;;;;;;4994253;28;20479;-64
2021/12/24 06:19:14;;;;;;;0.73;0.60;;;8.70;1.00;;;;;;4994094;28;21014;-65
2021/12/24 06:21:44;;;;;;;0.80;0.50;;;8.60;1.00;;;;;;4994008;28;20441;-64
2021/12/24 06:24:13;;;;;;;2.63;1.10;;;8.60;1.00;;;;;;4987910;28;20489;-64
2021/12/24 06:26:42;;;;;;;1.63;1.53;;;8.60;1.00;;;;;;4974756;28;20536;-65
2021/12/24 06:29:09;;;;;;;1.30;1.20;;;8.70;1.00;;;;;;4974898;28;20466;-65
2021/12/24 06:31:37;;;;;;;3.03;2.13;;;8.70;1.00;;;;;;4974762;28;20537;-65
2021/12/24 06:34:06;;;;;;;2.30;2.10;;;8.60;1.00;;;;;;4974948;28;20452;-63
2021/12/24 06:36:39;;;;;;;2.10;1.60;;;8.60;1.00;;;;;;4974832;28;20438;-64
2021/12/24 06:39:09;;;;;;;1.60;1.17;;;8.70;1.00;;;;;;4974428;28;20472;-64
2021/12/24 06:41:38;;;;;;;2.53;2.33;;;8.60;1.00;;;;;;4975380;28;20960;-64
2021/12/24 06:44:10;;;;;;;1.27;1.17;;;8.70;1.00;;;;;;4974281;28;20638;-65
2021/12/24 06:46:42;;;;;;;3.80;2.87;;;8.70;1.00;;;;;;4974115;28;20547;-67
2021/12/24 06:49:11;;;;;;;1.27;1.17;;;8.70;1.00;;;;;;4974059;28;20466;-66
2021/12/24 06:51:39;;;;;;;0.50;0.10;;;8.70;1.00;;;;;;4974288;28;20497;-64
2021/12/24 06:54:09;;;;;;;2.30;0.73;;;8.70;1.00;;;;;;4973028;28;20448;-65
2021/12/24 06:56:41;;;;;;;1.70;1.10;;;8.70;1.00;;;;;;4982662;28;20452;-65
2021/12/24 06:59:09;;;;;;;1.03;0.93;;;8.70;1.00;;;;;;4993003;28;20467;-64
2021/12/24 07:01:37;;;;;;;0.90;0.87;;;8.70;1.00;;;;;;4993590;28;20451;-64
2021/12/24 07:04:05;;;;;;;3.37;2.20;;;8.70;1.00;;;;;;4993375;28;20445;-64
2021/12/24 07:06:37;;;;;;;4.63;2.00;;;8.60;1.00;;;;;;4993209;28;20862;-65
2021/12/24 07:09:05;;;;;;;2.30;1.57;;;8.60;1.00;;;;;;4993039;28;20480;-63
2021/12/24 07:11:34;;;;;;;3.40;3.10;;;8.60;1.00;;;;;;4993497;28;20441;-64
2021/12/24 07:14:02;;;;;;;3.77;1.67;;;8.60;1.00;;;;;;4976601;28;20456;-64
2021/12/24 07:16:30;;;;;;;1.10;1.00;;;8.60;1.00;;;;;;4992848;28;20453;-63
2021/12/24 07:19:02;;;;;;;1.33;1.23;;;8.60;1.00;;;;;;4993695;28;20465;-65
2021/12/24 07:21:30;;;;;;;2.33;1.80;;;8.60;1.00;;;;;;4993420;28;20512;-64
2021/12/24 07:23:59;;;;;;;1.93;0.97;;;8.60;1.00;;;;;;4993215;28;20445;-65
2021/12/24 07:26:27;;;;;;;2.63;1.90;;;8.70;1.00;;;;;;4992571;28;20481;-65
2021/12/24 07:28:56;;;;;;;4.00;2.40;;;8.70;1.00;;;;;;4978762;28;20491;-64
2021/12/24 07:31:24;;;;;;;7.60;3.90;;;8.70;1.00;;;;;;4973298;28;20461;-64
2021/12/24 07:33:52;;;;;;;4.73;2.30;;;8.70;1.00;;;;;;4973515;28;20454;-64
2021/12/24 07:36:20;;;;;;;0.80;0.60;;;8.80;1.00;;;;;;4975440;28;20460;-65
2021/12/24 07:38:47;;;;;;;0.60;0.30;;;8.80;1.00;;;;;;4972973;28;20489;-65
2021/12/24 07:41:15;;;;;;;0.87;0.63;;;8.80;1.00;;;;;;4973273;28;20817;-63
2021/12/24 07:43:43;;;;;;;0.50;0.13;;;7.90;1.00;;;;;;4973248;28;20453;-64
2021/12/24 07:46:13;;;;;;;2.20;1.53;;;8.20;1.00;;;;;;4973129;28;20827;-64
2021/12/24 07:48:47;;;;;;;1.00;0.90;;;8.90;1.00;;;;;;4974147;28;21011;-65
2021/12/24 07:54:02;;;;;;;2.70;2.37;;;8.90;1.00;;;;;;4973315;28;20441;-65
2021/12/24 07:56:31;;;;;;;1.53;1.23;;;8.90;1.00;;;;;;4977021;28;20448;-64
2021/12/24 07:59:01;;;;;;;2.97;1.20;;;8.90;1.00;;;;;;4972936;28;20466;-64
2021/12/24 08:01:30;;;;;;;2.00;1.50;;;8.80;1.00;;;;;;4972924;28;20533;-64
2021/12/24 08:03:59;;;;;;;0.50;0.10;;;8.80;1.00;;;;;;4972747;28;20457;-64
2021/12/24 08:06:27;;;;;;;3.63;1.60;;;8.80;1.00;;;;;;4972583;28;20456;-65
2021/12/24 08:08:55;;;;;;;1.73;1.20;;;8.80;1.00;;;;;;4972634;28;20508;-65
2021/12/24 08:11:22;;;;;;;0.87;0.60;;;8.80;1.00;;;;;;4973023;28;20446;-65
2021/12/24 08:13:50;;;;;;;0.50;0.20;;;8.80;1.00;;;;;;4972804;28;20849;-63
2021/12/24 08:16:19;;;;;;;1.77;1.10;;;8.80;1.00;;;;;;4982012;28;20453;-65
2021/12/24 08:18:49;;;;;;;0.53;0.17;;;8.80;1.00;;;;;;4992656;28;20461;-65
2021/12/24 08:21:16;;;;;;;1.17;0.60;;;8.80;1.00;;;;;;4992462;28;20475;-75
2021/12/24 08:23:45;;;;;;;3.43;3.20;;;8.90;1.00;;;;;;4992410;28;20460;-65
2021/12/24 08:26:13;;;;;;;0.50;0.10;;;8.90;1.00;;;;;;4992020;28;20542;-65
2021/12/24 08:28:41;;;;;;;0.50;0.20;;;8.90;1.00;;;;;;4981634;28;20993;-65
2021/12/24 08:31:10;;;;;;;2.77;1.97;;;9.00;1.00;;;;;;4974430;28;20449;-65
2021/12/24 08:33:38;;;;;;;5.50;1.40;;;9.00;1.00;;;;;;4991643;28;20486;-65
2021/12/24 08:36:09;;;;;;;0.50;0.20;;;8.90;1.00;;;;;;4992092;28;20448;-66
2021/12/24 08:38:37;;;;;;;0.60;0.20;;;9.00;1.00;;;;;;4991968;28;20457;-66
2021/12/24 08:41:05;;;;;;;0.80;0.70;;;9.00;1.00;;;;;;4991967;28;20449;-66
2021/12/24 08:43:37;;;;;;;0.50;0.10;;;9.00;1.00;;;;;;4992076;28;20820;-66
2021/12/24 08:46:04;;;;;;;1.90;1.80;;;9.10;1.00;;;;;;4991958;28;20456;-67
2021/12/24 08:48:32;;;;;;;1.10;0.47;;;9.10;1.00;;;;;;4978045;28;20918;-65
2021/12/24 08:51:00;;;;;;;0.50;0.10;;;9.10;1.00;;;;;;4972680;28;20446;-66
2021/12/24 08:53:30;;;;;;;0.60;0.40;;;9.10;1.00;;;;;;4972871;28;20450;-66
2021/12/24 08:55:58;;;;;;;0.70;0.43;;;9.10;1.00;;;;;;4972366;28;20446;-67
2021/12/24 08:58:26;;;;;;;1.63;1.40;;;9.10;1.00;;;;;;4972517;28;20553;-65
2021/12/24 09:00:54;;;;;;;1.87;1.73;;;9.10;1.00;;;;;;4969262;28;20450;-65
2021/12/24 09:03:22;;;;;;;1.07;0.87;;;9.00;1.00;;;;;;4971507;28;20513;-65
2021/12/24 09:05:50;;;;;;;1.83;0.93;;;9.10;1.00;;;;;;4971931;28;20447;-66
2021/12/24 09:08:18;;;;;;;3.90;1.43;;;9.10;1.00;;;;;;4971660;28;20486;-66
2021/12/24 09:10:48;;;;;;;2.90;2.40;;;9.10;1.00;;;;;;4985833;23;20584;-68
2021/12/24 09:13:16;;;;;;;2.40;1.67;;;9.10;1.00;;;;;;4969494;28;20480;-69
2021/12/24 09:15:44;;;;;;;0.83;0.57;;;9.10;1.00;;;;;;4969928;28;20453;-68
2021/12/24 09:18:12;;;;;;;3.37;3.07;;;9.10;1.00;;;;;;4973302;28;20876;-68
2021/12/24 09:20:43;;;;;;;5.90;2.57;;;9.10;1.00;;;;;;4974749;28;20480;-69
2021/12/24 09:23:12;;;;;;;0.93;0.80;;;9.10;1.00;;;;;;4975806;28;20449;-69
2021/12/24 09:25:41;;;;;;;2.80;2.60;;;9.20;1.00;;;;;;4975794;28;20450;-68
2021/12/24 09:28:10;;;;;;;0.50;0.10;;;9.20;1.00;;;;;;4976130;28;20477;-68
2021/12/24 09:30:38;;;;;;;4.80;0.77;;;9.20;1.00;;;;;;4975810;28;20796;-69
2021/12/24 09:33:06;;;;;;;5.13;0.87;;;9.20;1.00;;;;;;4975405;28;20457;-68
2021/12/24 09:35:34;;;;;;;1.23;0.70;;;9.20;1.00;;;;;;4976188;28;20484;-72
2021/12/24 09:38:04;;;;;;;0.60;0.30;;;12.20;1.00;;;;;;4979599;28;20454;-68
2021/12/24 09:40:35;;;;;;;1.37;0.80;;;9.30;1.00;;;;;;4982953;28;20466;-68
2021/12/24 09:43:03;;;;;;;0.50;0.10;;;9.30;1.00;;;;;;4975093;28;20469;-69
2021/12/24 09:45:32;;;;;;;0.70;0.50;;;9.30;1.00;;;;;;4969433;28;20454;-66
2021/12/24 09:48:00;;;;;;;2.73;1.77;;;9.40;1.00;;;;;;4974664;28;20988;-69
2021/12/24 09:50:29;;;;;;;1.17;1.07;;;9.40;1.00;;;;;;4971170;28;20474;-69
2021/12/24 09:52:57;;;;;;;0.87;0.47;;;9.40;1.00;;;;;;4972858;28;20635;-69
2021/12/24 09:55:27;;;;;;;0.80;0.70;;;9.50;1.00;;;;;;4975195;28;20948;-69
2021/12/24 09:57:55;;;;;;;0.60;0.40;;;9.50;1.00;;;;;;4973365;28;21019;-70
2021/12/24 10:00:25;;;;;;;0.70;0.37;;;9.50;1.00;;;;;;4973633;28;20457;-69
2021/12/24 10:02:56;;;;;;;1.60;1.50;;;9.50;1.00;;;;;;4973714;28;20775;-71
2021/12/24 10:05:27;;;;;;;0.60;0.20;;;9.50;1.00;;;;;;4973805;28;20949;-68
2021/12/24 10:08:00;;;;;;;0.60;0.20;;;9.60;1.00;;;;;;4973406;28;20849;-70
2021/12/24 10:10:30;;;;;;;26.57;0.93;;;9.60;1.00;;;;;;4973062;28;20493;-70
2021/12/24 10:13:26;;;;;;;1.27;1.07;;;9.60;1.00;;;;;;4972823;28;20962;-70
2021/12/24 10:15:55;;;;;;;2.87;2.67;;;9.60;1.00;;;;;;4975086;28;20448;-70
2021/12/24 10:18:34;;;;;;;4.33;1.83;;;9.50;1.00;;;;;;4974853;28;20438;-70
2021/12/24 10:21:05;;;;;;;0.60;0.40;;;9.60;1.00;;;;;;4974736;28;20916;-69
2021/12/24 10:23:46;;;;;;;5.70;2.90;;;9.60;1.00;;;;;;4975062;28;20434;-68
2021/12/24 10:26:18;;;;;;;1.57;0.97;;;9.60;1.00;;;;;;4971604;28;20449;-68
2021/12/24 10:28:58;;;;;;;4.20;1.80;;;9.60;1.00;;;;;;4974381;28;20576;-68
2021/12/24 10:31:29;;;;;;;1.87;1.53;;;9.60;1.00;;;;;;4974269;28;20461;-68
2021/12/24 10:34:17;;;;;;;1.27;1.13;;;9.50;1.00;;;;;;4974418;28;20437;-69
2021/12/24 10:37:09;;;;;;;4.17;3.87;;;9.50;1.00;;;;;;4974851;28;20553;-68
2021/12/24 10:39:47;;;;;;;3.90;2.07;;;9.50;1.00;;;;;;4974539;28;20806;-69
2021/12/24 10:42:22;;;;;;;4.30;1.70;;;9.50;1.00;;;;;;4974671;28;20933;-68
2021/12/24 10:44:53;;;;;;;1.10;0.70;;;9.50;1.00;;;;;;4973778;28;20449;-69
2021/12/24 10:47:25;;;;;;;1.03;0.90;;;9.50;1.00;;;;;;4974412;28;20442;-70
2021/12/24 10:50:12;;;;;;;1.43;0.90;;;9.60;1.00;;;;;;4974283;28;20499;-69
2021/12/24 10:52:57;;;;;;;1.50;1.40;;;9.60;1.00;;;;;;4973985;28;20480;-70
2021/12/24 10:55:27;;;;;;;2.73;1.77;;;9.60;1.00;;;;;;4974058;28;20828;-70
2021/12/24 10:57:57;;;;;;;5.90;1.90;;;9.60;1.00;;;;;;4974249;28;20450;-69
2021/12/24 11:00:27;;;;;;;0.50;0.10;;;9.60;1.00;;;;;;4971172;28;20902;-70
2021/12/24 11:02:56;;;;;;;0.87;0.50;;;9.70;1.00;;;;;;4972959;28;20471;-70
2021/12/24 11:05:29;;;;;;;0.60;0.20;;;9.70;1.00;;;;;;4973762;28;20446;-69
2021/12/24 11:07:59;;;;;;;0.73;0.57;;;9.70;1.00;;;;;;4971635;28;20449;-70
2021/12/24 11:10:30;;;;;;;0.60;0.33;;;9.70;1.00;;;;;;4973758;28;20476;-67
2021/12/24 11:12:59;;;;;;;5.40;2.93;;;9.70;1.00;;;;;;4973807;28;20454;-67
2021/12/24 11:15:31;;;;;;;0.60;0.10;;;9.70;1.00;;;;;;4972989;28;20477;-68
2021/12/24 11:18:01;;;;;;;6.03;2.30;;;9.80;1.00;;;;;;4973820;28;20560;-70
2021/12/24 11:20:32;;;;;;;0.80;0.63;;;9.80;1.00;;;;;;4977405;28;20550;-68
2021/12/24 11:23:04;;;;;;;1.07;0.73;;;9.80;1.00;;;;;;4973334;28;20446;-68
2021/12/24 11:25:34;;;;;;;1.07;0.67;;;9.80;1.00;;;;;;4973124;28;20445;-69
2021/12/24 11:28:03;;;;;;;0.60;0.10;;;9.80;1.00;;;;;;4973142;28;20865;-68
2021/12/24 11:30:33;;;;;;;2.10;1.03;;;9.70;1.00;;;;;;4973724;28;20484;-69
2021/12/24 11:33:01;;;;;;;0.70;0.50;;;9.70;1.00;;;;;;4972735;28;20453;-68
2021/12/24 11:35:31;;;;;;;0.73;0.20;;;9.70;1.00;;;;;;4972305;28;20979;-68
2021/12/24 11:38:01;;;;;;;1.67;1.10;;;9.70;1.00;;;;;;4971614;28;20460;-68
2021/12/24 11:40:30;;;;;;;1.57;0.97;;;9.70;1.00;;;;;;4972562;28;20546;-68
2021/12/24 11:43:03;;;;;;;2.30;0.97;;;9.70;1.00;;;;;;4973827;28;20465;-68
2021/12/24 11:45:33;;;;;;;53.87;28.23;;;9.70;1.00;;;;;;4972453;28;20604;-69
2021/12/24 11:48:06;;;;;;;2.60;1.20;;;9.70;1.00;;;;;;4973648;28;20870;-77
2021/12/24 11:50:40;;;;;;;0.60;0.30;;;9.80;1.00;;;;;;4972534;28;20513;-72
2021/12/24 11:53:11;;;;;;;0.70;0.60;;;9.80;1.00;;;;;;4972025;28;20450;-77
2021/12/24 11:55:42;;;;;;;1.07;0.30;;;9.80;1.00;;;;;;4974676;28;20450;-74
2021/12/24 11:58:17;;;;;;;7.13;2.10;;;9.80;1.00;;;;;;4975149;28;20553;-73
2021/12/24 12:00:47;;;;;;;0.60;0.40;;;9.90;1.00;;;;;;4974872;28;20469;-75
2021/12/24 12:03:39;;;;;;;2.73;2.63;;;9.90;1.00;;;;;;4976877;28;20459;-76
2021/12/24 12:06:11;;;;;;;0.80;0.53;;;10.00;1.00;;;;;;4973304;28;20458;-75
2021/12/24 12:08:41;;;;;;;1.23;0.40;;;10.00;1.00;;;;;;4983808;28;20481;-75
2021/12/24 12:11:20;;;;;;;1.57;1.07;;;10.10;1.00;;;;;;4980021;28;20556;-74
2021/12/24 12:13:54;;;;;;;0.97;0.67;;;10.00;1.00;;;;;;4975465;28;20457;-74
2021/12/24 12:16:25;;;;;;;5.87;5.40;;;10.10;1.00;;;;;;4974877;28;20447;-74
2021/12/24 12:19:12;;;;;;;0.60;0.10;;;10.20;1.00;;;;;;4975149;28;20456;-75
2021/12/24 12:22:15;;;;;;;2.10;1.13;;;10.30;1.00;;;;;;4973767;28;20987;-74
2021/12/24 12:27:33;;;;;;;0.60;0.30;;;10.20;1.00;;;;;;4972922;28;20512;-75
2021/12/24 12:30:23;;;;;;;1.07;0.60;;;10.20;1.00;;;;;;4973260;28;20497;-75
2021/12/24 12:32:53;;;;;;;0.70;0.40;;;10.20;1.00;;;;;;4973658;28;20457;-75
2021/12/24 12:35:34;;;;;;;1.53;0.50;;;10.20;1.00;;;;;;4973856;28;20442;-75
2021/12/24 12:38:03;;;;;;;0.60;0.40;;;10.30;1.00;;;;;;4973721;28;20453;-74
2021/12/24 12:40:34;;;;;;;0.60;0.30;;;10.40;1.00;;;;;;4974130;28;20897;-75
2021/12/24 12:43:10;;;;;;;0.70;0.53;;;10.40;1.00;;;;;;4975439;28;20442;-73
2021/12/24 12:46:05;;;;;;;1.73;1.30;;;10.50;1.00;;;;;;4976522;28;20951;-75
2021/12/24 12:48:54;;;;;;;0.93;0.83;;;10.50;1.00;;;;;;4931698;28;20949;-74
2021/12/24 12:51:54;;;;;;;0.60;0.20;;;10.50;1.00;;;;;;4976209;28;20481;-74
2021/12/24 12:54:36;;;;;;;0.60;0.10;;;10.60;1.00;;;;;;4979339;28;20445;-74
2021/12/24 12:57:30;;;;;;;0.60;0.10;;;10.50;1.00;;;;;;4979014;28;20446;-73
2021/12/24 13:00:24;;;;;;;1.17;0.57;;;10.50;1.00;;;;;;4977118;28;20972;-74
2021/12/24 13:03:07;;;;;;;0.60;0.20;;;10.50;1.00;;;;;;4977357;28;21079;-74
2021/12/24 13:05:58;;;;;;;0.60;0.20;;;10.50;1.00;;;;;;4976504;28;20445;-76
2021/12/24 13:08:28;;;;;;;8.37;7.63;;;10.40;1.00;;;;;;4977744;28;20449;-75
2021/12/24 13:11:03;;;;;;;0.60;0.10;;;10.40;1.00;;;;;;4976691;28;20593;-74
2021/12/24 13:13:31;;;;;;;0.60;0.10;;;10.40;1.00;;;;;;4977309;28;20878;-74
2021/12/24 13:15:59;;;;;;;0.60;0.20;;;10.70;1.00;;;;;;4974138;28;20450;-73
2021/12/24 13:18:31;;;;;;;0.67;0.43;;;10.40;1.00;;;;;;4977374;28;20453;-75
2021/12/24 13:23:47;;;;;;;5.13;2.33;;;10.30;1.00;;;;;;4977112;28;20481;-75
2021/12/24 13:26:21;;;;;;;0.60;0.10;;;10.20;1.00;;;;;;4976628;28;20453;-76
2021/12/24 13:28:58;;;;;;;0.60;0.40;;;10.10;1.00;;;;;;4977467;28;20442;-75
2021/12/24 13:31:28;;;;;;;0.63;0.37;;;10.10;1.00;;;;;;4978744;28;20500;-75
2021/12/24 13:33:56;;;;;;;0.60;0.10;;;10.20;1.00;;;;;;4981212;28;20445;-74
2021/12/24 13:36:26;;;;;;;0.60;0.30;;;10.20;1.00;;;;;;4979213;28;20456;-75
2021/12/24 13:38:54;;;;;;;0.60;0.10;;;10.20;1.00;;;;;;4980216;28;20879;-75
2021/12/24 13:41:26;;;;;;;0.60;0.10;;;10.20;1.00;;;;;;4981195;28;20457;-74
2021/12/24 13:43:55;;;;;;;0.87;0.53;;;10.10;1.00;;;;;;4982837;28;20446;-75
2021/12/24 13:46:24;;;;;;;0.90;0.83;;;;;;;;;;4982415;28;20446;-75
2021/12/24 13:49:15;;;;;;;0.97;0.97;;;9.90;1.00;;;;;;4982284;28;20454;-75
2021/12/24 13:54:36;;;;;;;1.23;1.13;;;9.90;1.00;;;;;;4981836;28;20452;-75
2021/12/24 13:57:07;;;;;;;0.50;0.10;;;9.80;1.00;;;;;;4981696;28;20522;-74
2021/12/24 13:59:35;;;;;;;0.50;0.10;;;9.70;1.00;;;;;;4982632;28;20536;-75
2021/12/24 14:02:10;;;;;;;1.37;1.27;;;9.70;1.00;;;;;;4982140;28;20980;-74
2021/12/24 14:04:38;;;;;;;0.50;0.10;;;9.80;1.00;;;;;;4981512;28;20437;-74
2021/12/24 14:07:09;;;;;;;2.73;1.17;;;9.80;1.00;;;;;;4981963;28;20461;-74
2021/12/24 14:09:37;;;;;;;0.83;0.83;;;9.90;1.00;;;;;;4980213;28;20568;-75
2021/12/24 14:12:08;;;;;;;0.50;0.10;;;9.90;1.00;;;;;;4980864;28;20450;-74
2021/12/24 14:14:49;;;;;;;0.60;0.20;;;9.90;1.00;;;;;;4979113;28;20450;-73
2021/12/24 14:20:11;;;;;;;0.60;0.40;;;9.90;1.00;;;;;;4967498;28;20469;-74
2021/12/24 14:22:40;;;;;;;0.60;0.10;;;9.90;1.00;;;;;;4980271;28;20457;-74
2021/12/24 14:25:15;;;;;;;0.60;0.10;;;9.90;1.00;;;;;;4980037;28;20817;-75
2021/12/24 14:27:49;;;;;;;0.60;0.50;;;9.90;1.00;;;;;;4976842;28;20449;-75
2021/12/24 14:30:19;;;;;;;0.60;0.10;;;9.90;1.00;;;;;;4976625;28;20568;-75
2021/12/24 14:32:49;;;;;;;0.60;0.10;;;9.90;1.00;;;;;;4978155;28;20445;-75
2021/12/24 14:35:20;;;;;;;1.17;0.97;;;9.80;1.00;;;;;;4981105;28;20940;-74
2021/12/24 14:37:58;;;;;;;0.60;0.20;;;9.80;1.00;;;;;;4979106;28;20438;-75
2021/12/24 14:40:28;;;;;;;0.60;0.20;;;9.80;1.00;;;;;;4979279;28;20555;-75
2021/12/24 14:42:58;;;;;;;8.83;8.13;;;9.90;1.00;;;;;;4980410;28;20852;-74
2021/12/24 14:45:34;;;;;;;2.73;1.50;;;9.90;1.00;;;;;;4978815;28;20451;-75
2021/12/24 14:48:05;;;;;;;0.60;0.20;;;9.90;1.00;;;;;;4975491;28;20465;-75
2021/12/24 14:50:35;;;;;;;0.50;0.10;;;9.90;1.00;;;;;;4986059;28;20488;-74